Aérodrome :
LOGIN :

S'inscrire | Disclaimer

   EN    FR    IT 

 










Légende :    VFR   VFR Marginal   IFR   IFR Intensif   IFR Très Intensif
Visi : 
Plafond : 
>= 8 km
>= 3000ft
5 à 8 km
1000 à 3000 ft
1500m à 5 km
500 à 1000 ft
800 à 1500m
200 à 500 ft
< 800m
< 200 ft
Symboles :   Orages  Brouillard  Fortes neiges  Fortes précipitations  Vent > 20 kt
SIGMETs :   Divers  Orages  Givrage  Turbulence  Onde Orograph.  Cendres Volcan.







- Altitude de l'aérodrome : 87 ft
- Code IATA : FSC
- Voir les cartes d'approche


LFKF - Figari

DERNIER METAR :
  • 172000Z AUTO 26010KT CAVOK 24/14 Q1012 NOSIG

METARs EXPIRÉS :
  • 171930Z AUTO 25015KT CAVOK 24/18 Q1012 BECMG 22004KT
  • 171900Z AUTO 23011KT CAVOK 25/17 Q1012 NOSIG
  • 171830Z AUTO 24008KT CAVOK 27/10 Q1012 NOSIG
  • 171800Z AUTO 24005KT 200V290 CAVOK 29/08 Q1012 NOSIG
  • 171730Z AUTO 23007KT 180V280 CAVOK 28/14 Q1012 NOSIG

TAF TAF LFKF
Valide du 17 à 15h jusqu'au 18 à 15h UTC


171400Z 1715/1815 24015KT CAVOK
BECMG 1718/1721 22004KT
TEMPO 1800/1804 SCT015
BECMG 1807/1810 26010KT
Pas de NOTAMs connus pour ce terrain.



MET'MAP, la Météo Aéronautique d'un coup d'oeil ! - Copyright ORBIFLY Décembre 2007 - Disclaimer

ORBIFLY MET'MAP TEAM :

Programmation & Développement : Alexandra Zaïnal
Conception & Développement : Baudouin d'Aumeries
Co-Programmation & Développement : Marc-Olivier Méhu
Soutien technique & logistique : Manuel Goepfert

Contact : metmap@orbifly.com




SOURCES & CREDITS :

   NOAA